Time;durP1;ratioP1;P1;durP2;ratioP2;P2;SDS_P1;SDS_P2;PMS_P1;PMS_P2;Temp;Humidity;BMP_temperature;BMP_pressure;BME280_temperature;BME280_humidity;BME280_pressure;Samples;Min_cycle;Max_cycle;Signal;HPM_P1;HPM_P2
2023/05/09 00:01:51;;;;;;;0.40;0.40;;;20.20;88.30;;;;;;5005157;28;20411;-77
2023/05/09 00:04:16;;;;;;;0.32;0.30;;;20.20;87.50;;;;;;4990871;28;20072;-76
2023/05/09 00:06:42;;;;;;;0.35;0.30;;;20.20;87.50;;;;;;4999805;28;20073;-77
2023/05/09 00:09:08;;;;;;;0.50;0.30;;;20.20;87.50;;;;;;5003287;28;20058;-77
2023/05/09 00:11:33;;;;;;;0.50;0.50;;;20.20;87.60;;;;;;5004752;28;20046;-77
2023/05/09 00:13:59;;;;;;;0.22;0.20;;;20.20;87.60;;;;;;5005156;28;20042;-77
2023/05/09 00:16:25;;;;;;;0.30;0.30;;;20.20;87.60;;;;;;5005252;28;20306;-77
2023/05/09 00:18:51;;;;;;;0.30;0.30;;;20.20;87.50;;;;;;5002248;28;20487;-77
2023/05/09 00:21:17;;;;;;;1.48;0.20;;;20.20;87.60;;;;;;5003145;28;20042;-77
2023/05/09 00:23:42;;;;;;;0.30;0.20;;;20.20;87.60;;;;;;5003295;28;20468;-76
2023/05/09 00:26:09;;;;;;;0.25;0.20;;;20.20;87.60;;;;;;5007219;28;20038;-76
2023/05/09 00:28:34;;;;;;;0.30;0.30;;;20.20;87.60;;;;;;5006558;28;20622;-77
2023/05/09 00:31:00;;;;;;;0.20;0.20;;;20.20;87.60;;;;;;5007735;28;20512;-76
2023/05/09 00:33:25;;;;;;;0.40;0.40;;;20.20;87.60;;;;;;5007456;28;20503;-76
2023/05/09 00:35:54;;;;;;;0.40;0.40;;;20.20;87.60;;;;;;4999945;28;20073;-77
2023/05/09 00:38:20;;;;;;;0.20;0.20;;;20.20;87.60;;;;;;5004655;28;20132;-76
2023/05/09 00:40:45;;;;;;;0.52;0.30;;;20.20;87.70;;;;;;5030173;28;20137;-76
2023/05/09 00:43:11;;;;;;;0.45;0.20;;;20.20;87.70;;;;;;5005534;28;20060;-77
2023/05/09 00:45:36;;;;;;;0.30;0.30;;;20.10;87.70;;;;;;5006102;28;20041;-76
2023/05/09 00:48:02;;;;;;;0.20;0.20;;;20.20;87.70;;;;;;5003656;28;20042;-76
2023/05/09 00:50:27;;;;;;;0.98;0.22;;;20.20;87.60;;;;;;5002926;28;20488;-76
2023/05/09 00:52:53;;;;;;;0.43;0.40;;;20.20;87.70;;;;;;5002310;28;20073;-77
2023/05/09 00:55:19;;;;;;;0.28;0.20;;;20.20;87.60;;;;;;5004136;28;20447;-77
2023/05/09 00:57:44;;;;;;;0.25;0.20;;;20.20;87.70;;;;;;5005989;28;20044;-77
2023/05/09 01:00:11;;;;;;;0.50;0.30;;;20.10;87.60;;;;;;5001360;28;20504;-76
2023/05/09 01:02:41;;;;;;;0.38;0.30;;;20.20;87.70;;;;;;4996198;28;20069;-77
2023/05/09 01:05:07;;;;;;;1.45;0.47;;;20.20;87.70;;;;;;5004870;28;20168;-76
2023/05/09 01:07:51;;;;;;;0.20;0.20;;;20.20;87.70;;;;;;5003106;28;20503;-77
2023/05/09 01:10:38;;;;;;;0.20;0.20;;;20.10;87.80;;;;;;5019341;28;20038;-77
2023/05/09 01:13:13;;;;;;;0.20;0.20;;;20.10;87.70;;;;;;5002906;28;20046;-76
2023/05/09 01:16:05;;;;;;;0.30;0.30;;;20.20;87.70;;;;;;5001538;28;20050;-76
2023/05/09 01:18:47;;;;;;;0.20;0.20;;;20.10;87.60;;;;;;5011208;28;20172;-77
2023/05/09 01:21:18;;;;;;;0.20;0.20;;;20.10;87.70;;;;;;5002502;28;20042;-77
2023/05/09 01:23:43;;;;;;;0.30;0.30;;;20.10;87.70;;;;;;5002946;28;20133;-76
2023/05/09 01:26:40;;;;;;;0.30;0.20;;;20.10;87.80;;;;;;5004832;28;20133;-76
2023/05/09 01:29:38;;;;;;;0.30;0.25;;;20.10;87.80;;;;;;4983457;28;20052;-76
2023/05/09 01:32:11;;;;;;;0.20;0.20;;;20.20;87.80;;;;;;5006004;28;20130;-76
2023/05/09 01:34:37;;;;;;;0.20;0.20;;;20.20;87.90;;;;;;5001485;28;20041;-77
2023/05/09 01:37:03;;;;;;;0.40;0.30;;;20.20;87.80;;;;;;5020828;28;20041;-77
2023/05/09 01:39:30;;;;;;;0.55;0.30;;;20.20;87.70;;;;;;5002265;28;20042;-77
2023/05/09 01:41:56;;;;;;;0.40;0.40;;;20.20;87.80;;;;;;5033322;28;20039;-77
2023/05/09 01:44:22;;;;;;;0.20;0.20;;;20.10;87.60;;;;;;5003416;28;20500;-77
2023/05/09 01:46:48;;;;;;;0.35;0.30;;;20.20;87.70;;;;;;5021734;28;20045;-77
2023/05/09 01:49:14;;;;;;;0.30;0.30;;;20.10;87.60;;;;;;5029692;28;20470;-77
2023/05/09 01:51:39;;;;;;;0.20;0.20;;;20.20;87.70;;;;;;5020439;28;20655;-77
2023/05/09 01:54:05;;;;;;;0.20;0.20;;;20.20;87.80;;;;;;5018607;28;20073;-77
2023/05/09 01:56:31;;;;;;;1.75;0.30;;;20.10;87.80;;;;;;5013715;28;20423;-77
2023/05/09 01:58:56;;;;;;;2.08;0.30;;;20.10;87.70;;;;;;5002490;28;20073;-77
2023/05/09 02:01:22;;;;;;;0.52;0.20;;;20.10;87.70;;;;;;5004878;28;20041;-77
2023/05/09 02:03:51;;;;;;;0.28;0.28;;;20.10;87.70;;;;;;5004138;28;20030;-77
2023/05/09 02:06:17;;;;;;;0.20;0.20;;;20.10;87.80;;;;;;5007203;28;20038;-76
2023/05/09 02:08:42;;;;;;;0.20;0.20;;;20.10;87.80;;;;;;5022159;28;20054;-77
2023/05/09 02:11:08;;;;;;;0.50;0.20;;;20.10;87.80;;;;;;5022616;28;20054;-77
2023/05/09 02:13:34;;;;;;;0.40;0.20;;;20.10;87.80;;;;;;4989096;28;20076;-77
2023/05/09 02:15:59;;;;;;;0.20;0.20;;;20.10;87.70;;;;;;5014228;28;20043;-76
2023/05/09 02:18:26;;;;;;;0.55;0.40;;;20.10;87.80;;;;;;5008592;28;20129;-77
2023/05/09 02:20:51;;;;;;;0.20;0.20;;;20.10;87.80;;;;;;5004928;28;20045;-77
2023/05/09 02:23:17;;;;;;;0.17;0.10;;;20.10;87.80;;;;;;5007897;28;20050;-77
2023/05/09 02:25:43;;;;;;;0.20;0.20;;;20.10;87.80;;;;;;5008405;28;20049;-78
2023/05/09 02:28:09;;;;;;;0.22;0.20;;;20.10;87.80;;;;;;5007444;28;20057;-77
2023/05/09 02:30:37;;;;;;;0.20;0.20;;;20.10;87.80;;;;;;5008726;28;20066;-77
2023/05/09 02:33:05;;;;;;;0.20;0.20;;;20.10;87.80;;;;;;5015343;28;20490;-77
2023/05/09 02:35:30;;;;;;;1.30;0.20;;;20.10;88.60;;;;;;5003481;28;20112;-76
2023/05/09 02:37:57;;;;;;;0.90;0.20;;;20.10;87.80;;;;;;4991711;28;20447;-77
2023/05/09 02:40:23;;;;;;;0.65;0.20;;;20.10;87.90;;;;;;5012373;28;20080;-77
2023/05/09 02:42:48;;;;;;;0.73;0.40;;;20.10;87.90;;;;;;5016054;28;20045;-77
2023/05/09 02:45:14;;;;;;;0.20;0.20;;;20.10;87.90;;;;;;5022472;28;20451;-77
2023/05/09 02:47:40;;;;;;;0.20;0.20;;;20.10;88.00;;;;;;5017213;28;20124;-77
2023/05/09 02:50:06;;;;;;;0.30;0.20;;;20.00;88.60;;;;;;5005740;28;20076;-77
2023/05/09 02:52:31;;;;;;;0.20;0.20;;;20.10;88.00;;;;;;5004916;28;20034;-77
2023/05/09 02:54:57;;;;;;;0.13;0.13;;;20.10;88.00;;;;;;5005916;28;20048;-77
2023/05/09 02:57:22;;;;;;;1.13;0.20;;;20.10;87.90;;;;;;5028036;28;20125;-76
2023/05/09 02:59:48;;;;;;;0.10;0.10;;;20.00;87.80;;;;;;5002184;28;20100;-77
2023/05/09 03:02:13;;;;;;;0.10;0.10;;;20.00;87.90;;;;;;5008881;28;20038;-77
2023/05/09 03:04:40;;;;;;;0.10;0.10;;;20.10;87.90;;;;;;5019735;28;20069;-77
2023/05/09 03:07:05;;;;;;;0.10;0.10;;;20.10;87.90;;;;;;5008142;28;20041;-77
2023/05/09 03:09:31;;;;;;;0.20;0.15;;;20.10;87.90;;;;;;5005709;28;20162;-77
2023/05/09 03:11:56;;;;;;;0.10;0.10;;;20.10;87.80;;;;;;5005927;28;20050;-77
2023/05/09 03:14:22;;;;;;;0.38;0.20;;;20.10;87.90;;;;;;5006788;28;20670;-77
2023/05/09 03:16:48;;;;;;;0.90;0.20;;;20.10;87.90;;;;;;5034647;28;20041;-77
2023/05/09 03:19:13;;;;;;;0.03;0.03;;;20.10;87.80;;;;;;5018326;28;20500;-77
2023/05/09 03:21:39;;;;;;;0.20;0.10;;;20.10;87.80;;;;;;5006417;28;20615;-76
2023/05/09 03:24:06;;;;;;;0.20;0.20;;;20.00;87.80;;;;;;5005426;28;20123;-77
2023/05/09 03:26:34;;;;;;;0.20;0.20;;;20.10;87.80;;;;;;5021513;28;20050;-77
2023/05/09 03:29:00;;;;;;;0.20;0.20;;;20.00;87.80;;;;;;5005424;28;20103;-76
2023/05/09 03:31:25;;;;;;;0.10;0.10;;;20.00;87.80;;;;;;5007355;28;20066;-77
2023/05/09 03:33:51;;;;;;;0.20;0.20;;;20.10;87.90;;;;;;5020496;28;20073;-77
2023/05/09 03:36:17;;;;;;;0.68;0.30;;;20.00;87.80;;;;;;5023470;28;20552;-77
2023/05/09 03:38:42;;;;;;;0.30;0.30;;;20.10;87.90;;;;;;5004934;28;20054;-77
2023/05/09 03:41:08;;;;;;;0.10;0.10;;;20.10;87.80;;;;;;5005244;28;20046;-77
2023/05/09 03:43:34;;;;;;;0.17;0.17;;;20.10;88.60;;;;;;5005280;28;20537;-76
2023/05/09 03:45:59;;;;;;;0.10;0.10;;;20.10;88.70;;;;;;5004689;28;20049;-76
2023/05/09 03:48:25;;;;;;;0.20;0.20;;;20.10;87.90;;;;;;5004761;28;20454;-76
2023/05/09 03:50:51;;;;;;;0.10;0.10;;;20.10;87.80;;;;;;5006661;28;20465;-77
2023/05/09 03:53:16;;;;;;;0.10;0.10;;;20.00;87.80;;;;;;5004859;28;20045;-76
2023/05/09 03:55:42;;;;;;;0.20;0.13;;;20.10;87.80;;;;;;5003621;28;20056;-77
2023/05/09 03:58:07;;;;;;;0.10;0.10;;;20.10;87.80;;;;;;5020875;28;20411;-76
2023/05/09 04:00:33;;;;;;;0.15;0.15;;;20.10;87.80;;;;;;5023268;28;20141;-77
2023/05/09 04:02:59;;;;;;;0.40;0.32;;;20.10;87.90;;;;;;5022144;28;20191;-77
2023/05/09 04:05:25;;;;;;;0.10;0.10;;;20.10;87.90;;;;;;5021392;28;20066;-77
2023/05/09 04:07:51;;;;;;;0.30;0.10;;;20.10;88.00;;;;;;5006523;28;20042;-76
2023/05/09 04:10:17;;;;;;;0.20;0.10;;;20.10;87.90;;;;;;5021828;28;20050;-77
2023/05/09 04:12:42;;;;;;;0.10;0.10;;;20.10;87.90;;;;;;5020309;28;20541;-77
2023/05/09 04:15:08;;;;;;;0.10;0.10;;;20.10;87.90;;;;;;5004307;28;20099;-77
2023/05/09 04:17:34;;;;;;;0.17;0.10;;;20.00;87.90;;;;;;5004288;28;20050;-77
2023/05/09 04:20:00;;;;;;;0.28;0.17;;;20.00;87.90;;;;;;5004074;28;20053;-77
2023/05/09 04:22:25;;;;;;;0.10;0.10;;;20.00;87.90;;;;;;5007574;28;20469;-77
2023/05/09 04:24:51;;;;;;;0.10;0.10;;;20.10;88.00;;;;;;5005780;28;20056;-77
2023/05/09 04:27:16;;;;;;;0.10;0.10;;;20.00;87.90;;;;;;5008476;28;20606;-76
2023/05/09 04:29:42;;;;;;;0.10;0.10;;;20.00;88.70;;;;;;5002972;28;20053;-77
2023/05/09 04:32:07;;;;;;;0.10;0.10;;;20.00;87.90;;;;;;5005203;28;20038;-77
2023/05/09 04:34:33;;;;;;;0.57;0.13;;;20.00;87.90;;;;;;5004674;28;20038;-77
2023/05/09 04:36:58;;;;;;;0.10;0.10;;;20.00;87.90;;;;;;5005625;28;20080;-77
2023/05/09 04:39:24;;;;;;;0.10;0.10;;;20.00;87.80;;;;;;5006341;28;20537;-76
2023/05/09 04:41:50;;;;;;;0.10;0.10;;;20.00;87.90;;;;;;5005034;28;20136;-77
2023/05/09 04:44:16;;;;;;;0.10;0.10;;;20.00;87.90;;;;;;5006851;28;20052;-77
2023/05/09 04:46:41;;;;;;;0.10;0.10;;;20.00;88.00;;;;;;5006412;28;20049;-77
2023/05/09 04:49:07;;;;;;;0.05;0.05;;;20.00;87.90;;;;;;5026271;28;20547;-77
2023/05/09 04:51:32;;;;;;;0.10;0.10;;;20.00;88.00;;;;;;5009676;28;20038;-76
2023/05/09 04:53:58;;;;;;;0.10;0.10;;;20.00;88.00;;;;;;5029987;28;20038;-77
2023/05/09 04:56:23;;;;;;;0.00;0.00;;;20.00;88.00;;;;;;5036067;28;20046;-77
2023/05/09 04:58:50;;;;;;;0.20;0.10;;;20.00;88.80;;;;;;5016659;28;20060;-77
2023/05/09 05:01:15;;;;;;;0.00;0.00;;;20.10;88.00;;;;;;5001722;28;20059;-76
2023/05/09 05:03:41;;;;;;;0.10;0.10;;;20.10;88.00;;;;;;5001897;28;20062;-77
2023/05/09 05:06:07;;;;;;;0.10;0.10;;;20.00;87.90;;;;;;5026621;28;20046;-77
2023/05/09 05:08:32;;;;;;;0.52;0.20;;;20.00;88.20;;;;;;5004660;28;20638;-77
2023/05/09 05:10:58;;;;;;;0.90;0.20;;;20.00;87.90;;;;;;5003298;28;20049;-77
2023/05/09 05:13:23;;;;;;;0.10;0.10;;;20.00;88.00;;;;;;4652018;28;10000215;-78
2023/05/09 05:15:49;;;;;;;0.22;0.20;;;20.10;88.00;;;;;;5015275;28;20045;-78
2023/05/09 05:18:14;;;;;;;0.17;0.10;;;20.10;88.00;;;;;;5015135;28;20045;-78
2023/05/09 05:20:41;;;;;;;0.10;0.10;;;20.10;88.00;;;;;;5002965;28;20050;-76
2023/05/09 05:23:07;;;;;;;1.45;0.20;;;20.00;88.00;;;;;;4998538;28;20103;-77
2023/05/09 05:25:32;;;;;;;0.10;0.10;;;20.00;88.10;;;;;;5001933;28;20034;-77
2023/05/09 05:27:58;;;;;;;0.57;0.10;;;20.10;88.10;;;;;;5019793;28;20542;-77
2023/05/09 05:30:24;;;;;;;0.20;0.10;;;20.10;88.00;;;;;;5000315;28;20046;-76
2023/05/09 05:32:49;;;;;;;0.10;0.10;;;20.00;87.90;;;;;;4999995;28;20469;-77
2023/05/09 05:35:15;;;;;;;0.20;0.20;;;20.10;87.90;;;;;;4997568;28;20042;-77
2023/05/09 05:37:41;;;;;;;0.15;0.15;;;20.00;87.80;;;;;;4998726;28;20041;-78
2023/05/09 05:40:07;;;;;;;0.10;0.10;;;20.10;87.90;;;;;;5003046;28;20049;-78
2023/05/09 05:42:33;;;;;;;1.65;0.10;;;20.00;87.80;;;;;;5023922;28;20124;-77
2023/05/09 05:45:03;;;;;;;0.10;0.10;;;20.10;87.90;;;;;;5015407;28;20046;-78
2023/05/09 05:47:35;;;;;;;0.10;0.10;;;20.10;88.00;;;;;;5003362;28;20030;-78
2023/05/09 05:50:01;;;;;;;0.10;0.00;;;20.10;87.90;;;;;;5018150;28;20452;-78
2023/05/09 05:52:27;;;;;;;0.00;0.00;;;20.10;87.90;;;;;;5001103;28;20038;-78
2023/05/09 05:54:53;;;;;;;0.10;0.10;;;20.10;88.00;;;;;;5007002;28;20073;-77
2023/05/09 05:57:18;;;;;;;0.08;0.03;;;20.00;87.90;;;;;;5017180;28;20056;-77
2023/05/09 05:59:46;;;;;;;0.10;0.03;;;20.10;88.00;;;;;;5003629;28;20046;-77
2023/05/09 06:02:12;;;;;;;0.22;0.20;;;20.10;88.00;;;;;;5000337;28;20068;-78
2023/05/09 06:04:38;;;;;;;0.10;0.10;;;20.10;88.00;;;;;;5006312;28;20049;-78
2023/05/09 06:07:03;;;;;;;0.00;0.00;;;20.10;87.80;;;;;;5003500;28;20081;-76
2023/05/09 06:09:29;;;;;;;0.52;0.10;;;20.10;87.80;;;;;;4988313;28;20031;-78
2023/05/09 06:11:55;;;;;;;0.00;0.00;;;20.10;87.80;;;;;;5000459;28;20415;-78
2023/05/09 06:14:20;;;;;;;0.10;0.10;;;20.10;87.80;;;;;;5020853;28;20128;-77
2023/05/09 06:16:46;;;;;;;0.10;0.10;;;20.10;87.80;;;;;;4985965;28;20041;-77
2023/05/09 06:19:11;;;;;;;0.00;0.00;;;20.20;87.90;;;;;;5003296;28;20030;-76
2023/05/09 06:21:37;;;;;;;0.65;0.10;;;20.10;87.80;;;;;;5003307;28;20119;-76
2023/05/09 06:24:03;;;;;;;0.17;0.10;;;20.10;87.90;;;;;;5015672;28;20034;-76
2023/05/09 06:26:29;;;;;;;0.00;0.00;;;20.10;87.80;;;;;;5002994;28;20594;-76
2023/05/09 06:28:55;;;;;;;0.88;0.10;;;20.10;88.00;;;;;;4987703;28;20030;-76
2023/05/09 06:31:20;;;;;;;0.10;0.10;;;20.10;88.00;;;;;;5003385;28;20046;-77
2023/05/09 06:33:46;;;;;;;0.10;0.10;;;20.10;87.40;;;;;;5016332;28;20049;-77
2023/05/09 06:36:11;;;;;;;0.95;0.10;;;20.10;87.80;;;;;;5003204;28;20050;-77
2023/05/09 06:38:37;;;;;;;0.00;0.00;;;20.10;88.00;;;;;;5006479;28;20141;-77
2023/05/09 06:41:02;;;;;;;0.10;0.10;;;20.10;89.20;;;;;;5020993;28;20041;-77
2023/05/09 06:43:28;;;;;;;0.52;0.10;;;20.10;88.90;;;;;;5008745;28;20459;-78
2023/05/09 06:45:54;;;;;;;1.20;0.10;;;20.10;88.30;;;;;;5005288;28;20384;-78
2023/05/09 06:48:19;;;;;;;0.45;0.10;;;20.10;88.50;;;;;;5006930;28;20107;-77
2023/05/09 06:50:45;;;;;;;0.10;0.10;;;20.10;88.30;;;;;;4989465;28;20046;-77
2023/05/09 06:53:10;;;;;;;1.55;0.10;;;20.10;88.20;;;;;;5005258;28;20590;-77
2023/05/09 06:55:36;;;;;;;1.08;0.10;;;20.10;88.20;;;;;;5024357;28;20038;-77
2023/05/09 06:58:02;;;;;;;0.30;0.10;;;20.10;88.20;;;;;;5005548;28;20088;-77
2023/05/09 07:00:28;;;;;;;0.20;0.20;;;20.10;88.30;;;;;;5024951;28;20042;-77
2023/05/09 07:02:53;;;;;;;0.50;0.10;;;20.10;88.30;;;;;;5006717;28;20423;-77
2023/05/09 07:05:19;;;;;;;0.10;0.10;;;20.10;88.50;;;;;;5034144;28;20089;-77
2023/05/09 07:07:45;;;;;;;0.10;0.03;;;20.10;88.70;;;;;;5022674;28;20045;-77
2023/05/09 07:10:10;;;;;;;0.20;0.10;;;20.10;88.60;;;;;;5006923;28;20045;-78
2023/05/09 07:12:36;;;;;;;0.30;0.10;;;20.10;88.80;;;;;;5009951;28;20064;-77
2023/05/09 07:15:01;;;;;;;0.20;0.03;;;20.10;88.80;;;;;;5006101;28;20507;-78
2023/05/09 07:17:28;;;;;;;1.00;0.10;;;20.10;88.80;;;;;;5004571;28;20046;-77
2023/05/09 07:19:54;;;;;;;0.28;0.13;;;20.10;88.90;;;;;;5005654;28;20116;-78
2023/05/09 07:22:20;;;;;;;0.10;0.10;;;20.10;88.80;;;;;;5037227;28;20560;-77
2023/05/09 07:24:46;;;;;;;0.10;0.10;;;20.10;88.70;;;;;;5009820;28;20116;-77
2023/05/09 07:27:11;;;;;;;0.10;0.00;;;20.10;88.80;;;;;;5006797;28;20073;-78
2023/05/09 07:29:37;;;;;;;0.10;0.00;;;20.10;88.80;;;;;;5013204;28;20056;-77
2023/05/09 07:32:03;;;;;;;0.32;0.20;;;20.10;88.80;;;;;;5006817;28;20403;-77
2023/05/09 07:34:28;;;;;;;0.20;0.10;;;20.10;88.80;;;;;;5023439;28;20045;-77
2023/05/09 07:36:54;;;;;;;1.45;0.17;;;20.10;88.80;;;;;;5006099;28;20557;-77
2023/05/09 07:39:19;;;;;;;0.45;0.20;;;20.10;88.90;;;;;;5007635;28;20041;-77
2023/05/09 07:41:45;;;;;;;0.82;0.03;;;20.10;88.80;;;;;;5007124;28;20042;-78
2023/05/09 07:44:11;;;;;;;0.30;0.20;;;20.10;88.80;;;;;;5018798;28;20030;-78
2023/05/09 07:46:39;;;;;;;0.10;0.10;;;20.10;88.80;;;;;;5006325;28;20117;-78
2023/05/09 07:49:04;;;;;;;0.10;0.10;;;20.10;88.70;;;;;;5007404;28;20042;-78
2023/05/09 07:51:31;;;;;;;0.50;0.20;;;20.10;88.60;;;;;;5007936;28;20533;-77
2023/05/09 07:53:56;;;;;;;0.10;0.10;;;20.10;88.60;;;;;;5035937;28;20037;-78
2023/05/09 07:56:22;;;;;;;0.20;0.20;;;20.10;88.60;;;;;;5004262;28;20038;-77
2023/05/09 07:58:48;;;;;;;0.10;0.10;;;20.10;88.40;;;;;;5007770;28;20088;-77
2023/05/09 08:01:13;;;;;;;0.10;0.10;;;20.10;88.30;;;;;;5006724;28;20062;-77
2023/05/09 08:03:39;;;;;;;0.20;0.20;;;20.20;88.30;;;;;;5006651;28;20092;-77
2023/05/09 08:06:05;;;;;;;0.75;0.13;;;20.20;88.40;;;;;;5007316;28;20050;-78
2023/05/09 08:08:30;;;;;;;0.10;0.10;;;20.20;88.50;;;;;;5006937;28;20491;-78
2023/05/09 08:10:56;;;;;;;0.20;0.20;;;20.20;88.40;;;;;;5004481;28;20056;-77
2023/05/09 08:13:22;;;;;;;0.10;0.10;;;20.20;88.30;;;;;;5003978;28;20106;-77
2023/05/09 08:15:48;;;;;;;0.32;0.20;;;20.20;88.20;;;;;;5006040;28;20045;-77
2023/05/09 08:18:13;;;;;;;0.20;0.20;;;20.20;88.20;;;;;;5021296;28;20133;-77
2023/05/09 08:20:39;;;;;;;0.57;0.32;;;20.20;88.20;;;;;;5007144;28;20068;-77
2023/05/09 08:23:05;;;;;;;0.20;0.20;;;20.20;88.10;;;;;;5003921;28;20108;-77
2023/05/09 08:25:31;;;;;;;0.10;0.10;;;20.20;88.10;;;;;;5020814;28;20656;-77
2023/05/09 08:27:56;;;;;;;0.10;0.10;;;20.20;88.00;;;;;;5021722;28;20065;-78
2023/05/09 08:30:22;;;;;;;0.10;0.10;;;20.20;87.60;;;;;;5007011;28;20046;-77
2023/05/09 08:32:47;;;;;;;0.25;0.25;;;20.20;87.60;;;;;;5005773;28;20033;-77
2023/05/09 08:35:13;;;;;;;0.10;0.10;;;20.20;87.60;;;;;;5004713;28;20503;-77
2023/05/09 08:37:38;;;;;;;0.10;0.10;;;20.20;87.80;;;;;;4988669;28;20073;-77
2023/05/09 08:40:08;;;;;;;0.10;0.10;;;20.20;87.80;;;;;;5006311;28;20050;-78
2023/05/09 08:42:35;;;;;;;0.00;0.00;;;20.20;87.80;;;;;;5003094;28;20038;-77
2023/05/09 08:45:14;;;;;;;0.10;0.10;;;20.30;87.80;;;;;;5021191;28;20551;-78
2023/05/09 08:47:40;;;;;;;0.10;0.10;;;20.30;87.80;;;;;;5016206;28;20264;-77
2023/05/09 08:50:06;;;;;;;0.35;0.20;;;20.20;87.80;;;;;;5003098;28;20479;-77
2023/05/09 08:52:32;;;;;;;0.13;0.08;;;20.20;87.60;;;;;;5021802;28;20046;-77
2023/05/09 08:54:59;;;;;;;0.10;0.10;;;20.30;87.70;;;;;;5006899;28;20117;-78
2023/05/09 08:57:28;;;;;;;0.10;0.10;;;20.30;87.70;;;;;;5003959;28;20065;-78
2023/05/09 08:59:54;;;;;;;0.38;0.15;;;20.30;87.60;;;;;;5019768;28;20892;-77
2023/05/09 09:02:20;;;;;;;0.30;0.10;;;20.30;87.60;;;;;;5003482;28;20460;-77
2023/05/09 09:04:46;;;;;;;0.10;0.10;;;20.30;87.50;;;;;;5021892;28;20058;-78
2023/05/09 09:07:11;;;;;;;0.17;0.17;;;20.30;87.60;;;;;;5006255;28;20133;-77
2023/05/09 09:09:37;;;;;;;0.00;0.00;;;20.20;87.60;;;;;;5006792;28;20053;-77
2023/05/09 09:12:05;;;;;;;0.10;0.10;;;20.20;87.60;;;;;;5020243;28;20060;-78
2023/05/09 09:14:31;;;;;;;0.35;0.10;;;20.30;87.70;;;;;;5013690;28;20048;-77
2023/05/09 09:16:56;;;;;;;0.20;0.08;;;20.20;87.60;;;;;;5004971;28;20042;-77
2023/05/09 09:19:22;;;;;;;0.10;0.10;;;20.30;88.50;;;;;;4989064;28;20157;-77
2023/05/09 09:21:49;;;;;;;0.10;0.10;;;20.30;88.40;;;;;;5018842;28;20046;-77
2023/05/09 09:24:17;;;;;;;0.10;0.10;;;20.30;87.70;;;;;;5004503;28;20033;-77
2023/05/09 09:26:47;;;;;;;0.08;0.08;;;20.30;87.60;;;;;;5004456;28;20037;-77
2023/05/09 09:29:13;;;;;;;0.13;0.13;;;20.30;87.50;;;;;;5004370;28;20160;-77
2023/05/09 09:31:38;;;;;;;0.10;0.10;;;20.30;87.40;;;;;;5000530;28;20482;-77
2023/05/09 09:34:04;;;;;;;0.10;0.10;;;20.40;87.30;;;;;;4977224;28;20080;-77
2023/05/09 09:36:34;;;;;;;0.20;0.20;;;20.40;87.20;;;;;;5006630;28;20033;-78
2023/05/09 09:39:03;;;;;;;0.20;0.20;;;20.40;87.30;;;;;;5002047;28;20053;-77
2023/05/09 09:41:32;;;;;;;0.32;0.10;;;20.40;87.20;;;;;;5001877;28;20042;-77
2023/05/09 09:43:58;;;;;;;0.13;0.10;;;20.40;86.70;;;;;;5021837;28;20042;-77
2023/05/09 09:46:24;;;;;;;0.10;0.10;;;20.40;86.80;;;;;;5004908;28;20063;-77
2023/05/09 09:48:54;;;;;;;0.05;0.00;;;20.40;86.70;;;;;;5020650;28;20037;-77
2023/05/09 09:51:20;;;;;;;0.10;0.10;;;20.40;86.80;;;;;;5005463;28;20042;-78
2023/05/09 09:53:46;;;;;;;0.13;0.13;;;20.40;86.60;;;;;;5004836;28;20041;-77
2023/05/09 09:56:11;;;;;;;0.28;0.25;;;20.40;86.60;;;;;;5003435;28;20092;-77
2023/05/09 09:58:37;;;;;;;0.10;0.10;;;20.50;86.60;;;;;;5001460;28;20074;-78
2023/05/09 10:01:18;;;;;;;0.10;0.10;;;20.40;86.60;;;;;;5002487;28;20034;-77
2023/05/09 10:03:45;;;;;;;0.10;0.10;;;20.40;86.60;;;;;;5003273;28;20045;-77
2023/05/09 10:06:14;;;;;;;0.20;0.20;;;20.50;86.70;;;;;;5003224;28;20037;-78
2023/05/09 10:08:40;;;;;;;0.20;0.10;;;20.50;86.70;;;;;;5025215;28;20134;-77
2023/05/09 10:11:06;;;;;;;0.50;0.10;;;20.50;86.60;;;;;;5021070;28;20129;-77
2023/05/09 10:13:37;;;;;;;0.13;0.13;;;20.50;86.70;;;;;;5001430;28;20050;-77
2023/05/09 10:16:03;;;;;;;0.13;0.10;;;20.50;86.80;;;;;;5004797;28;20123;-77
2023/05/09 10:18:29;;;;;;;0.10;0.10;;;20.40;86.80;;;;;;5005937;28;20045;-77
2023/05/09 10:20:55;;;;;;;0.10;0.10;;;20.40;86.80;;;;;;5001677;28;20412;-77
2023/05/09 10:23:22;;;;;;;0.08;0.08;;;20.50;86.70;;;;;;5018412;28;20062;-77
2023/05/09 10:25:54;;;;;;;0.05;0.00;;;20.50;86.60;;;;;;5004455;28;20041;-77
2023/05/09 10:28:25;;;;;;;0.10;0.10;;;20.50;86.70;;;;;;5008899;28;20030;-77
2023/05/09 10:31:01;;;;;;;0.17;0.10;;;20.50;86.60;;;;;;5016475;28;20511;-78
2023/05/09 10:33:33;;;;;;;1.48;0.10;;;20.50;86.70;;;;;;4991388;28;20531;-77
2023/05/09 10:35:58;;;;;;;0.20;0.10;;;20.50;86.80;;;;;;4993214;28;20050;-81
2023/05/09 10:38:24;;;;;;;0.30;0.10;;;20.50;86.40;;;;;;4992391;28;20049;-78
2023/05/09 10:40:50;;;;;;;0.10;0.10;;;20.50;86.40;;;;;;4992317;28;20053;-80
2023/05/09 10:43:15;;;;;;;0.10;0.10;;;20.60;86.50;;;;;;5010182;28;20791;-81
2023/05/09 10:45:41;;;;;;;0.22;0.20;;;20.60;86.90;;;;;;4996877;28;20042;-78
2023/05/09 10:48:07;;;;;;;0.20;0.13;;;20.60;86.90;;;;;;4996063;28;20045;-81
2023/05/09 10:50:34;;;;;;;0.35;0.20;;;20.70;87.30;;;;;;5012427;28;20058;-79
2023/05/09 10:53:03;;;;;;;0.51;0.10;;;20.70;87.30;;;;;;4662791;28;10000510;-80
2023/05/09 10:55:48;;;;;;;0.10;0.10;;;20.70;87.10;;;;;;4988431;28;20060;-81
2023/05/09 10:58:18;;;;;;;0.10;0.10;;;20.70;87.00;;;;;;4988603;28;20053;-80
2023/05/09 11:00:43;;;;;;;0.10;0.10;;;20.60;87.00;;;;;;5009716;28;20049;-81
2023/05/09 11:03:09;;;;;;;0.10;0.10;;;20.60;86.90;;;;;;5006887;28;20061;-80
2023/05/09 11:05:38;;;;;;;0.10;0.10;;;20.60;86.80;;;;;;4991518;28;20494;-81
2023/05/09 11:08:27;;;;;;;0.28;0.20;;;20.70;86.60;;;;;;5006072;28;20054;-81
2023/05/09 11:10:53;;;;;;;0.40;0.10;;;20.60;86.60;;;;;;5002819;28;20100;-74
2023/05/09 11:13:22;;;;;;;0.10;0.10;;;20.60;86.50;;;;;;5002466;28;20038;-74
2023/05/09 11:16:00;;;;;;;0.17;0.10;;;20.70;86.60;;;;;;4987006;28;20049;-75
2023/05/09 11:18:28;;;;;;;0.08;0.08;;;20.70;86.50;;;;;;4986716;28;22438;-75
2023/05/09 11:20:54;;;;;;;0.40;0.10;;;20.70;86.40;;;;;;5003214;28;20041;-75
2023/05/09 11:23:21;;;;;;;0.10;0.10;;;20.70;86.50;;;;;;4992306;28;20084;-75
2023/05/09 11:25:47;;;;;;;0.25;0.13;;;20.70;86.50;;;;;;5019548;28;20125;-74
2023/05/09 11:28:29;;;;;;;0.20;0.20;;;20.70;86.50;;;;;;5003405;28;20053;-76
2023/05/09 11:31:11;;;;;;;0.13;0.13;;;20.70;86.60;;;;;;5002743;28;20060;-75
2023/05/09 11:33:36;;;;;;;0.52;0.10;;;20.70;86.50;;;;;;4995895;28;20053;-76
2023/05/09 11:36:26;;;;;;;0.10;0.10;;;20.70;86.60;;;;;;5014489;28;20485;-75
2023/05/09 11:39:03;;;;;;;0.20;0.20;;;20.70;86.70;;;;;;4999884;28;20212;-75
2023/05/09 11:41:29;;;;;;;0.10;0.10;;;20.70;86.70;;;;;;5011957;28;20728;-76
2023/05/09 11:43:55;;;;;;;0.30;0.20;;;20.80;86.50;;;;;;5002887;28;20056;-75
2023/05/09 11:46:21;;;;;;;0.93;0.20;;;20.80;86.50;;;;;;5018869;28;20401;-77
2023/05/09 11:48:47;;;;;;;0.00;0.00;;;20.80;86.30;;;;;;5005934;28;20045;-76
2023/05/09 11:51:17;;;;;;;0.20;0.10;;;20.90;86.00;;;;;;4988700;28;20045;-75
2023/05/09 11:53:48;;;;;;;0.30;0.20;;;20.90;86.00;;;;;;5021574;28;20030;-75
2023/05/09 11:56:14;;;;;;;0.22;0.22;;;20.90;86.00;;;;;;5000817;28;20039;-76
2023/05/09 11:58:39;;;;;;;0.20;0.10;;;20.90;86.10;;;;;;5005348;28;20096;-75
2023/05/09 12:01:05;;;;;;;0.38;0.13;;;21.00;86.10;;;;;;4989380;28;20057;-74
2023/05/09 12:03:32;;;;;;;0.55;0.13;;;21.00;86.10;;;;;;5003916;28;20050;-75
2023/05/09 12:05:57;;;;;;;0.82;0.22;;;21.00;86.10;;;;;;5015453;28;20044;-75
2023/05/09 12:08:23;;;;;;;0.10;0.10;;;20.90;86.00;;;;;;5014378;28;20411;-75
2023/05/09 12:10:49;;;;;;;0.20;0.10;;;21.00;86.20;;;;;;5016724;28;20050;-75
2023/05/09 12:13:14;;;;;;;0.10;0.10;;;21.00;86.10;;;;;;5000900;28;20077;-75
2023/05/09 12:15:40;;;;;;;0.20;0.20;;;21.00;86.00;;;;;;5004645;28;20045;-75
2023/05/09 12:18:06;;;;;;;0.13;0.13;;;21.00;86.00;;;;;;5003943;28;20580;-75
2023/05/09 12:20:45;;;;;;;0.00;0.00;;;21.00;86.00;;;;;;5000764;28;20081;-74
2023/05/09 12:23:11;;;;;;;0.30;0.10;;;21.00;85.90;;;;;;4684147;28;10001228;-77
2023/05/09 12:25:37;;;;;;;0.88;0.20;;;21.10;85.70;;;;;;5001008;28;20055;-75
2023/05/09 12:28:02;;;;;;;0.25;0.10;;;21.00;85.90;;;;;;5002158;28;20415;-75
2023/05/09 12:30:28;;;;;;;0.10;0.10;;;20.90;85.90;;;;;;5023959;28;20053;-75
2023/05/09 12:32:54;;;;;;;0.20;0.20;;;20.90;86.10;;;;;;5015634;28;20046;-75
2023/05/09 12:35:21;;;;;;;0.10;0.10;;;20.90;86.20;;;;;;4996916;28;20057;-75
2023/05/09 12:37:57;;;;;;;0.10;0.10;;;20.90;86.20;;;;;;4998373;28;20204;-75
2023/05/09 12:40:23;;;;;;;0.10;0.10;;;20.90;86.20;;;;;;5017706;28;20045;-75
2023/05/09 12:42:48;;;;;;;0.10;0.10;;;20.90;86.10;;;;;;5005095;28;20053;-75
2023/05/09 12:45:14;;;;;;;0.10;0.10;;;20.80;86.20;;;;;;4998456;28;20062;-76